sensor_id;sensor_type;location;lat;lon;timestamp;temperature;humidity
65559;DHT22;52203;51.998;5.140;2024-01-10T00:01:43;7.12;118.99
65559;DHT22;52203;51.998;5.140;2024-01-10T00:04:08;7.13;118.99
65559;DHT22;52203;51.998;5.140;2024-01-10T00:06:37;7.12;118.99
65559;DHT22;52203;51.998;5.140;2024-01-10T00:09:02;7.13;118.99
65559;DHT22;52203;51.998;5.140;2024-01-10T00:11:28;7.13;118.99
65559;DHT22;52203;51.998;5.140;2024-01-10T00:13:53;7.14;118.99
65559;DHT22;52203;51.998;5.140;2024-01-10T00:16:27;7.14;118.99
65559;DHT22;52203;51.998;5.140;2024-01-10T00:18:53;7.13;118.99
65559;DHT22;52203;51.998;5.140;2024-01-10T00:21:18;7.12;118.99
65559;DHT22;52203;51.998;5.140;2024-01-10T00:23:44;7.13;118.99
65559;DHT22;52203;51.998;5.140;2024-01-10T00:26:10;7.14;118.99
65559;DHT22;52203;51.998;5.140;2024-01-10T00:28:35;7.14;118.99
65559;DHT22;52203;51.998;5.140;2024-01-10T00:31:01;7.12;118.99
65559;DHT22;52203;51.998;5.140;2024-01-10T00:33:26;7.13;118.99
65559;DHT22;52203;51.998;5.140;2024-01-10T00:35:52;7.13;118.99
65559;DHT22;52203;51.998;5.140;2024-01-10T00:38:17;7.14;118.99
65559;DHT22;52203;51.998;5.140;2024-01-10T00:40:42;7.12;118.99
65559;DHT22;52203;51.998;5.140;2024-01-10T00:43:08;7.14;118.99
65559;DHT22;52203;51.998;5.140;2024-01-10T00:45:34;7.14;118.99
65559;DHT22;52203;51.998;5.140;2024-01-10T00:47:59;7.13;118.99
65559;DHT22;52203;51.998;5.140;2024-01-10T00:50:25;7.14;118.99
65559;DHT22;52203;51.998;5.140;2024-01-10T00:52:50;7.14;118.99
65559;DHT22;52203;51.998;5.140;2024-01-10T00:55:16;7.15;118.99
65559;DHT22;52203;51.998;5.140;2024-01-10T00:57:41;7.14;118.99
65559;DHT22;52203;51.998;5.140;2024-01-10T01:00:09;7.15;118.99
65559;DHT22;52203;51.998;5.140;2024-01-10T01:02:36;7.15;118.99
65559;DHT22;52203;51.998;5.140;2024-01-10T01:05:02;7.15;118.99
65559;DHT22;52203;51.998;5.140;2024-01-10T01:07:28;7.15;118.99
65559;DHT22;52203;51.998;5.140;2024-01-10T01:09:53;7.15;118.99
65559;DHT22;52203;51.998;5.140;2024-01-10T01:12:19;7.15;118.99
65559;DHT22;52203;51.998;5.140;2024-01-10T01:14:45;7.15;118.99
65559;DHT22;52203;51.998;5.140;2024-01-10T01:17:10;7.16;118.99
65559;DHT22;52203;51.998;5.140;2024-01-10T01:19:38;7.16;118.99
65559;DHT22;52203;51.998;5.140;2024-01-10T01:22:03;7.16;118.99
65559;DHT22;52203;51.998;5.140;2024-01-10T01:24:29;7.16;118.99
65559;DHT22;52203;51.998;5.140;2024-01-10T01:26:54;7.16;118.99
65559;DHT22;52203;51.998;5.140;2024-01-10T01:29:20;7.16;118.99
65559;DHT22;52203;51.998;5.140;2024-01-10T01:31:46;7.18;118.99
65559;DHT22;52203;51.998;5.140;2024-01-10T01:34:12;7.16;118.99
65559;DHT22;52203;51.998;5.140;2024-01-10T01:36:37;7.15;118.99
65559;DHT22;52203;51.998;5.140;2024-01-10T01:39:03;7.17;118.99
65559;DHT22;52203;51.998;5.140;2024-01-10T01:41:28;7.16;118.99
65559;DHT22;52203;51.998;5.140;2024-01-10T01:43:54;7.18;118.99
65559;DHT22;52203;51.998;5.140;2024-01-10T01:46:20;7.17;118.99
65559;DHT22;52203;51.998;5.140;2024-01-10T01:48:46;7.17;118.99
65559;DHT22;52203;51.998;5.140;2024-01-10T01:51:12;7.16;118.99
65559;DHT22;52203;51.998;5.140;2024-01-10T01:53:39;7.16;118.99
65559;DHT22;52203;51.998;5.140;2024-01-10T01:56:07;7.17;118.99
65559;DHT22;52203;51.998;5.140;2024-01-10T01:58:33;7.17;118.99
65559;DHT22;52203;51.998;5.140;2024-01-10T02:01:01;7.16;118.99
65559;DHT22;52203;51.998;5.140;2024-01-10T02:03:27;7.17;118.99
65559;DHT22;52203;51.998;5.140;2024-01-10T02:05:53;7.18;118.99
65559;DHT22;52203;51.998;5.140;2024-01-10T02:08:19;7.17;118.99
65559;DHT22;52203;51.998;5.140;2024-01-10T02:10:45;7.15;118.99
65559;DHT22;52203;51.998;5.140;2024-01-10T02:13:10;7.17;118.99
65559;DHT22;52203;51.998;5.140;2024-01-10T02:15:37;7.17;118.99
65559;DHT22;52203;51.998;5.140;2024-01-10T02:18:03;7.16;118.99
65559;DHT22;52203;51.998;5.140;2024-01-10T02:20:31;7.16;118.99
65559;DHT22;52203;51.998;5.140;2024-01-10T02:22:56;7.17;118.99
65559;DHT22;52203;51.998;5.140;2024-01-10T02:25:22;7.16;118.99
65559;DHT22;52203;51.998;5.140;2024-01-10T02:27:47;7.17;118.99
65559;DHT22;52203;51.998;5.140;2024-01-10T02:30:14;7.17;118.99
65559;DHT22;52203;51.998;5.140;2024-01-10T02:32:39;7.17;118.99
65559;DHT22;52203;51.998;5.140;2024-01-10T02:35:05;7.17;118.99
65559;DHT22;52203;51.998;5.140;2024-01-10T02:37:31;7.17;118.99
65559;DHT22;52203;51.998;5.140;2024-01-10T02:39:57;7.18;118.99
65559;DHT22;52203;51.998;5.140;2024-01-10T02:42:22;7.17;118.99
65559;DHT22;52203;51.998;5.140;2024-01-10T02:44:48;7.18;118.99
65559;DHT22;52203;51.998;5.140;2024-01-10T02:47:13;7.18;118.99
65559;DHT22;52203;51.998;5.140;2024-01-10T02:49:39;7.19;118.99
65559;DHT22;52203;51.998;5.140;2024-01-10T02:52:05;7.19;118.99
65559;DHT22;52203;51.998;5.140;2024-01-10T02:54:30;7.19;118.99
65559;DHT22;52203;51.998;5.140;2024-01-10T02:56:56;7.19;118.99
65559;DHT22;52203;51.998;5.140;2024-01-10T02:59:21;7.17;118.99
65559;DHT22;52203;51.998;5.140;2024-01-10T03:01:47;7.19;118.99
65559;DHT22;52203;51.998;5.140;2024-01-10T03:04:12;7.20;118.99
65559;DHT22;52203;51.998;5.140;2024-01-10T03:06:38;7.20;118.99
65559;DHT22;52203;51.998;5.140;2024-01-10T03:09:03;7.19;118.99
65559;DHT22;52203;51.998;5.140;2024-01-10T03:11:29;7.20;118.99
65559;DHT22;52203;51.998;5.140;2024-01-10T03:14:07;7.19;118.99
65559;DHT22;52203;51.998;5.140;2024-01-10T03:16:33;7.19;118.99
65559;DHT22;52203;51.998;5.140;2024-01-10T03:18:58;7.19;118.99
65559;DHT22;52203;51.998;5.140;2024-01-10T03:21:24;7.19;118.99
65559;DHT22;52203;51.998;5.140;2024-01-10T03:23:55;7.18;118.99
65559;DHT22;52203;51.998;5.140;2024-01-10T03:26:21;7.19;118.99
65559;DHT22;52203;51.998;5.140;2024-01-10T03:28:46;7.18;118.99
65559;DHT22;52203;51.998;5.140;2024-01-10T03:31:12;7.20;118.99
65559;DHT22;52203;51.998;5.140;2024-01-10T03:33:37;7.18;118.99
65559;DHT22;52203;51.998;5.140;2024-01-10T03:36:04;7.18;118.99
65559;DHT22;52203;51.998;5.140;2024-01-10T03:38:30;7.18;118.99
65559;DHT22;52203;51.998;5.140;2024-01-10T03:40:55;7.20;118.99
65559;DHT22;52203;51.998;5.140;2024-01-10T03:43:21;7.19;118.99
65559;DHT22;52203;51.998;5.140;2024-01-10T03:45:46;7.19;118.99
65559;DHT22;52203;51.998;5.140;2024-01-10T03:48:12;7.20;118.99
65559;DHT22;52203;51.998;5.140;2024-01-10T03:50:37;7.20;118.99
65559;DHT22;52203;51.998;5.140;2024-01-10T03:53:03;7.20;118.99
65559;DHT22;52203;51.998;5.140;2024-01-10T03:55:28;7.17;118.99
65559;DHT22;52203;51.998;5.140;2024-01-10T03:57:55;7.20;118.99
65559;DHT22;52203;51.998;5.140;2024-01-10T04:00:21;7.18;118.99
65559;DHT22;52203;51.998;5.140;2024-01-10T04:02:46;7.20;118.99
65559;DHT22;52203;51.998;5.140;2024-01-10T04:05:12;7.19;118.99
65559;DHT22;52203;51.998;5.140;2024-01-10T04:07:40;7.22;118.99
65559;DHT22;52203;51.998;5.140;2024-01-10T04:10:09;7.19;118.99
65559;DHT22;52203;51.998;5.140;2024-01-10T04:12:40;7.20;118.99
65559;DHT22;52203;51.998;5.140;2024-01-10T04:15:06;7.19;118.99
65559;DHT22;52203;51.998;5.140;2024-01-10T04:17:32;7.22;118.99
65559;DHT22;52203;51.998;5.140;2024-01-10T04:19:57;7.22;118.99
65559;DHT22;52203;51.998;5.140;2024-01-10T04:22:26;7.22;118.99
65559;DHT22;52203;51.998;5.140;2024-01-10T04:24:52;7.22;118.99
65559;DHT22;52203;51.998;5.140;2024-01-10T04:27:17;7.22;118.99
65559;DHT22;52203;51.998;5.140;2024-01-10T04:29:45;7.22;118.99
65559;DHT22;52203;51.998;5.140;2024-01-10T04:32:11;7.18;118.99
65559;DHT22;52203;51.998;5.140;2024-01-10T04:34:36;7.22;118.99
65559;DHT22;52203;51.998;5.140;2024-01-10T04:37:04;7.22;118.99
65559;DHT22;52203;51.998;5.140;2024-01-10T04:39:32;7.20;118.99
65559;DHT22;52203;51.998;5.140;2024-01-10T04:41:57;7.22;118.99
65559;DHT22;52203;51.998;5.140;2024-01-10T04:44:25;7.22;118.99
65559;DHT22;52203;51.998;5.140;2024-01-10T04:46:51;7.22;118.99
65559;DHT22;52203;51.998;5.140;2024-01-10T04:49:16;7.22;118.99
65559;DHT22;52203;51.998;5.140;2024-01-10T04:51:45;7.20;118.99
65559;DHT22;52203;51.998;5.140;2024-01-10T04:54:11;7.20;118.99
65559;DHT22;52203;51.998;5.140;2024-01-10T04:56:36;7.20;118.99
65559;DHT22;52203;51.998;5.140;2024-01-10T04:59:03;7.22;118.99
65559;DHT22;52203;51.998;5.140;2024-01-10T05:01:28;7.22;118.99
65559;DHT22;52203;51.998;5.140;2024-01-10T05:03:54;7.20;118.99
65559;DHT22;52203;51.998;5.140;2024-01-10T05:06:19;7.22;118.99
65559;DHT22;52203;51.998;5.140;2024-01-10T05:08:45;7.22;118.99
65559;DHT22;52203;51.998;5.140;2024-01-10T05:11:11;7.19;118.99
65559;DHT22;52203;51.998;5.140;2024-01-10T05:13:39;7.20;118.99
65559;DHT22;52203;51.998;5.140;2024-01-10T05:16:05;7.19;118.99
65559;DHT22;52203;51.998;5.140;2024-01-10T05:18:33;7.19;118.99
65559;DHT22;52203;51.998;5.140;2024-01-10T05:20:59;7.19;118.99
65559;DHT22;52203;51.998;5.140;2024-01-10T05:23:28;7.19;118.99
65559;DHT22;52203;51.998;5.140;2024-01-10T05:25:54;7.23;118.99
65559;DHT22;52203;51.998;5.140;2024-01-10T05:28:19;7.22;118.99
65559;DHT22;52203;51.998;5.140;2024-01-10T05:30:48;7.20;118.99
65559;DHT22;52203;51.998;5.140;2024-01-10T05:33:13;7.19;118.99
65559;DHT22;52203;51.998;5.140;2024-01-10T05:35:39;7.19;118.99
65559;DHT22;52203;51.998;5.140;2024-01-10T05:38:04;7.17;118.99
65559;DHT22;52203;51.998;5.140;2024-01-10T05:40:30;7.19;118.99
65559;DHT22;52203;51.998;5.140;2024-01-10T05:42:57;7.19;118.99
65559;DHT22;52203;51.998;5.140;2024-01-10T05:45:22;7.20;118.99
65559;DHT22;52203;51.998;5.140;2024-01-10T05:47:48;7.20;118.99
65559;DHT22;52203;51.998;5.140;2024-01-10T05:50:13;7.20;118.99
65559;DHT22;52203;51.998;5.140;2024-01-10T05:52:39;7.18;118.99
65559;DHT22;52203;51.998;5.140;2024-01-10T05:55:06;7.19;118.99
65559;DHT22;52203;51.998;5.140;2024-01-10T05:57:34;7.18;118.99
65559;DHT22;52203;51.998;5.140;2024-01-10T05:59:59;7.17;118.99
65559;DHT22;52203;51.998;5.140;2024-01-10T06:02:25;7.19;118.99
65559;DHT22;52203;51.998;5.140;2024-01-10T06:04:52;7.20;118.99
65559;DHT22;52203;51.998;5.140;2024-01-10T06:07:17;7.19;118.99
65559;DHT22;52203;51.998;5.140;2024-01-10T06:09:43;7.19;118.99
65559;DHT22;52203;51.998;5.140;2024-01-10T06:12:14;7.18;118.99
65559;DHT22;52203;51.998;5.140;2024-01-10T06:14:40;7.16;118.99
65559;DHT22;52203;51.998;5.140;2024-01-10T06:17:06;7.17;118.99
65559;DHT22;52203;51.998;5.140;2024-01-10T06:19:32;7.16;118.99
65559;DHT22;52203;51.998;5.140;2024-01-10T06:21:58;7.17;118.99
65559;DHT22;52203;51.998;5.140;2024-01-10T06:24:24;7.16;118.99
65559;DHT22;52203;51.998;5.140;2024-01-10T06:26:49;7.16;118.99
65559;DHT22;52203;51.998;5.140;2024-01-10T06:29:15;7.17;118.99
65559;DHT22;52203;51.998;5.140;2024-01-10T06:31:41;7.15;118.99
65559;DHT22;52203;51.998;5.140;2024-01-10T06:34:07;7.16;118.99
65559;DHT22;52203;51.998;5.140;2024-01-10T06:36:33;7.16;118.99
65559;DHT22;52203;51.998;5.140;2024-01-10T06:38:58;7.19;118.99
65559;DHT22;52203;51.998;5.140;2024-01-10T06:41:26;7.17;118.99
65559;DHT22;52203;51.998;5.140;2024-01-10T06:43:52;7.16;118.99
65559;DHT22;52203;51.998;5.140;2024-01-10T06:46:18;7.16;118.99
65559;DHT22;52203;51.998;5.140;2024-01-10T06:48:44;7.15;118.99
65559;DHT22;52203;51.998;5.140;2024-01-10T06:51:12;7.15;118.99
65559;DHT22;52203;51.998;5.140;2024-01-10T06:53:38;7.14;118.99
65559;DHT22;52203;51.998;5.140;2024-01-10T06:56:04;7.13;118.99
65559;DHT22;52203;51.998;5.140;2024-01-10T06:58:29;7.14;118.99
65559;DHT22;52203;51.998;5.140;2024-01-10T07:00:55;7.15;118.99
65559;DHT22;52203;51.998;5.140;2024-01-10T07:03:20;7.13;118.99
65559;DHT22;52203;51.998;5.140;2024-01-10T07:05:46;7.13;118.99
65559;DHT22;52203;51.998;5.140;2024-01-10T07:08:11;7.15;118.99
65559;DHT22;52203;51.998;5.140;2024-01-10T07:10:37;7.15;118.99
65559;DHT22;52203;51.998;5.140;2024-01-10T07:13:04;7.14;118.99
65559;DHT22;52203;51.998;5.140;2024-01-10T07:15:30;7.14;118.99
65559;DHT22;52203;51.998;5.140;2024-01-10T07:17:55;7.14;118.99
65559;DHT22;52203;51.998;5.140;2024-01-10T07:20:21;7.15;118.99
65559;DHT22;52203;51.998;5.140;2024-01-10T07:22:49;7.13;118.99
65559;DHT22;52203;51.998;5.140;2024-01-10T07:25:15;7.14;118.99
65559;DHT22;52203;51.998;5.140;2024-01-10T07:27:41;7.13;118.99
65559;DHT22;52203;51.998;5.140;2024-01-10T07:30:07;7.12;118.99
65559;DHT22;52203;51.998;5.140;2024-01-10T07:32:42;7.12;118.99
65559;DHT22;52203;51.998;5.140;2024-01-10T07:35:08;7.12;118.99
65559;DHT22;52203;51.998;5.140;2024-01-10T07:37:38;7.12;118.99
65559;DHT22;52203;51.998;5.140;2024-01-10T07:40:04;7.11;118.99
65559;DHT22;52203;51.998;5.140;2024-01-10T07:42:34;7.13;118.99
65559;DHT22;52203;51.998;5.140;2024-01-10T07:45:00;7.11;118.99
65559;DHT22;52203;51.998;5.140;2024-01-10T07:47:35;7.13;118.99
65559;DHT22;52203;51.998;5.140;2024-01-10T07:50:08;7.12;118.99
65559;DHT22;52203;51.998;5.140;2024-01-10T07:52:34;7.10;118.99
65559;DHT22;52203;51.998;5.140;2024-01-10T07:55:00;7.10;118.99
65559;DHT22;52203;51.998;5.140;2024-01-10T07:57:26;7.10;118.99
65559;DHT22;52203;51.998;5.140;2024-01-10T07:59:53;7.10;118.99
65559;DHT22;52203;51.998;5.140;2024-01-10T08:02:19;7.10;118.99
65559;DHT22;52203;51.998;5.140;2024-01-10T08:04:44;7.11;118.99
65559;DHT22;52203;51.998;5.140;2024-01-10T08:07:10;7.10;118.99
65559;DHT22;52203;51.998;5.140;2024-01-10T08:09:36;7.10;118.99
65559;DHT22;52203;51.998;5.140;2024-01-10T08:12:02;7.11;118.99
65559;DHT22;52203;51.998;5.140;2024-01-10T08:14:28;7.11;118.99
65559;DHT22;52203;51.998;5.140;2024-01-10T08:16:54;7.09;118.99
65559;DHT22;52203;51.998;5.140;2024-01-10T08:19:26;7.07;118.99
65559;DHT22;52203;51.998;5.140;2024-01-10T08:21:52;6.99;118.99
65559;DHT22;52203;51.998;5.140;2024-01-10T08:24:19;6.97;118.99
65559;DHT22;52203;51.998;5.140;2024-01-10T08:26:44;6.97;118.99
65559;DHT22;52203;51.998;5.140;2024-01-10T08:29:10;7.02;118.99
65559;DHT22;52203;51.998;5.140;2024-01-10T08:31:35;7.05;118.99
65559;DHT22;52203;51.998;5.140;2024-01-10T08:34:01;7.00;118.99
65559;DHT22;52203;51.998;5.140;2024-01-10T08:36:26;6.90;118.99
65559;DHT22;52203;51.998;5.140;2024-01-10T08:38:52;6.85;118.99
65559;DHT22;52203;51.998;5.140;2024-01-10T08:41:18;6.84;118.99
65559;DHT22;52203;51.998;5.140;2024-01-10T08:43:46;6.87;118.99
65559;DHT22;52203;51.998;5.140;2024-01-10T08:46:11;6.89;118.99
65559;DHT22;52203;51.998;5.140;2024-01-10T08:48:37;6.91;118.99
65559;DHT22;52203;51.998;5.140;2024-01-10T08:51:02;6.91;118.99
65559;DHT22;52203;51.998;5.140;2024-01-10T08:53:28;6.91;118.99
65559;DHT22;52203;51.998;5.140;2024-01-10T08:55:54;6.93;118.99
65559;DHT22;52203;51.998;5.140;2024-01-10T08:58:19;6.94;118.99
65559;DHT22;52203;51.998;5.140;2024-01-10T09:00:45;6.94;118.99
65559;DHT22;52203;51.998;5.140;2024-01-10T09:03:11;6.96;118.99
65559;DHT22;52203;51.998;5.140;2024-01-10T09:05:37;6.96;118.99
65559;DHT22;52203;51.998;5.140;2024-01-10T09:08:03;6.96;118.99
65559;DHT22;52203;51.998;5.140;2024-01-10T09:10:29;6.95;118.99
65559;DHT22;52203;51.998;5.140;2024-01-10T09:12:54;6.96;118.99
65559;DHT22;52203;51.998;5.140;2024-01-10T09:15:20;6.95;118.99
65559;DHT22;52203;51.998;5.140;2024-01-10T09:17:45;6.96;118.99
65559;DHT22;52203;51.998;5.140;2024-01-10T09:20:15;6.95;118.99
65559;DHT22;52203;51.998;5.140;2024-01-10T09:22:41;6.95;118.99
65559;DHT22;52203;51.998;5.140;2024-01-10T09:25:06;6.96;118.99
65559;DHT22;52203;51.998;5.140;2024-01-10T09:27:33;6.95;118.99
65559;DHT22;52203;51.998;5.140;2024-01-10T09:30:04;6.95;118.99
65559;DHT22;52203;51.998;5.140;2024-01-10T09:32:34;6.94;118.99
65559;DHT22;52203;51.998;5.140;2024-01-10T09:35:00;6.95;118.99
65559;DHT22;52203;51.998;5.140;2024-01-10T09:37:26;6.94;118.99
65559;DHT22;52203;51.998;5.140;2024-01-10T09:39:54;6.95;118.99
65559;DHT22;52203;51.998;5.140;2024-01-10T09:42:20;6.96;118.99
65559;DHT22;52203;51.998;5.140;2024-01-10T09:44:50;6.94;118.99
65559;DHT22;52203;51.998;5.140;2024-01-10T09:47:20;6.86;118.99
65559;DHT22;52203;51.998;5.140;2024-01-10T09:49:46;6.60;118.99
65559;DHT22;52203;51.998;5.140;2024-01-10T09:52:20;6.59;118.99
65559;DHT22;52203;51.998;5.140;2024-01-10T09:54:54;6.63;118.99
65559;DHT22;52203;51.998;5.140;2024-01-10T09:57:19;6.68;118.99
65559;DHT22;52203;51.998;5.140;2024-01-10T09:59:47;6.66;118.99
65559;DHT22;52203;51.998;5.140;2024-01-10T10:02:13;6.68;118.99
65559;DHT22;52203;51.998;5.140;2024-01-10T10:04:56;6.72;118.99
65559;DHT22;52203;51.998;5.140;2024-01-10T10:07:26;6.73;118.99
65559;DHT22;52203;51.998;5.140;2024-01-10T10:09:51;6.76;118.99
65559;DHT22;52203;51.998;5.140;2024-01-10T10:12:18;6.76;118.99
65559;DHT22;52203;51.998;5.140;2024-01-10T10:14:44;6.78;118.99
65559;DHT22;52203;51.998;5.140;2024-01-10T10:17:17;6.83;118.99
65559;DHT22;52203;51.998;5.140;2024-01-10T10:19:43;6.82;118.99
65559;DHT22;52203;51.998;5.140;2024-01-10T10:22:10;6.81;118.99
65559;DHT22;52203;51.998;5.140;2024-01-10T10:24:36;6.81;118.99
65559;DHT22;52203;51.998;5.140;2024-01-10T10:27:05;6.83;118.99
65559;DHT22;52203;51.998;5.140;2024-01-10T10:29:32;6.82;118.99
65559;DHT22;52203;51.998;5.140;2024-01-10T10:32:00;6.81;118.99
65559;DHT22;52203;51.998;5.140;2024-01-10T10:34:30;6.81;118.99
65559;DHT22;52203;51.998;5.140;2024-01-10T10:36:56;6.73;118.99
65559;DHT22;52203;51.998;5.140;2024-01-10T10:39:22;6.79;118.99
65559;DHT22;52203;51.998;5.140;2024-01-10T10:41:47;6.95;118.99
65559;DHT22;52203;51.998;5.140;2024-01-10T10:44:19;7.17;118.99
65559;DHT22;52203;51.998;5.140;2024-01-10T10:46:49;7.35;118.99
65559;DHT22;52203;51.998;5.140;2024-01-10T10:49:18;7.37;118.99
65559;DHT22;52203;51.998;5.140;2024-01-10T10:51:51;7.22;118.99
65559;DHT22;52203;51.998;5.140;2024-01-10T10:54:18;7.19;118.99
65559;DHT22;52203;51.998;5.140;2024-01-10T10:56:44;7.16;118.99
65559;DHT22;52203;51.998;5.140;2024-01-10T10:59:13;7.16;118.99
65559;DHT22;52203;51.998;5.140;2024-01-10T11:01:42;7.20;118.99
65559;DHT22;52203;51.998;5.140;2024-01-10T11:04:10;7.33;118.99
65559;DHT22;52203;51.998;5.140;2024-01-10T11:06:36;7.49;118.99
65559;DHT22;52203;51.998;5.140;2024-01-10T11:09:06;7.65;118.99
65559;DHT22;52203;51.998;5.140;2024-01-10T11:20:20;7.58;118.99
65559;DHT22;52203;51.998;5.140;2024-01-10T11:25:37;7.53;118.99
65559;DHT22;52203;51.998;5.140;2024-01-10T11:28:05;7.49;118.99
65559;DHT22;52203;51.998;5.140;2024-01-10T11:30:34;7.49;118.99
65559;DHT22;52203;51.998;5.140;2024-01-10T11:33:24;7.49;118.99
65559;DHT22;52203;51.998;5.140;2024-01-10T11:36:16;7.47;118.99
65559;DHT22;52203;51.998;5.140;2024-01-10T11:41:35;7.44;118.99
65559;DHT22;52203;51.998;5.140;2024-01-10T11:44:28;7.44;118.99
65559;DHT22;52203;51.998;5.140;2024-01-10T11:46:57;7.41;118.99
65559;DHT22;52203;51.998;5.140;2024-01-10T11:49:24;7.42;118.99
65559;DHT22;52203;51.998;5.140;2024-01-10T11:51:56;7.40;118.99
65559;DHT22;52203;51.998;5.140;2024-01-10T11:54:43;7.38;118.99
65559;DHT22;52203;51.998;5.140;2024-01-10T11:57:18;7.32;118.99
65559;DHT22;52203;51.998;5.140;2024-01-10T11:59:45;7.29;118.99
65559;DHT22;52203;51.998;5.140;2024-01-10T12:02:14;7.29;118.99
65559;DHT22;52203;51.998;5.140;2024-01-10T12:04:40;7.29;118.99
65559;DHT22;52203;51.998;5.140;2024-01-10T12:07:07;7.27;118.99
65559;DHT22;52203;51.998;5.140;2024-01-10T12:09:34;7.28;118.99
65559;DHT22;52203;51.998;5.140;2024-01-10T12:12:00;7.42;118.99
65559;DHT22;52203;51.998;5.140;2024-01-10T12:14:26;7.78;118.99
65559;DHT22;52203;51.998;5.140;2024-01-10T12:16:52;8.20;118.99
65559;DHT22;52203;51.998;5.140;2024-01-10T12:19:18;8.34;118.99
65559;DHT22;52203;51.998;5.140;2024-01-10T12:21:43;8.66;118.99
65559;DHT22;52203;51.998;5.140;2024-01-10T12:24:09;8.66;118.99
65559;DHT22;52203;51.998;5.140;2024-01-10T12:26:35;8.85;118.99
65559;DHT22;52203;51.998;5.140;2024-01-10T12:29:02;8.72;118.99
65559;DHT22;52203;51.998;5.140;2024-01-10T12:31:31;8.49;118.99
65559;DHT22;52203;51.998;5.140;2024-01-10T12:33:59;8.30;118.99
65559;DHT22;52203;51.998;5.140;2024-01-10T12:36:24;8.11;118.99
65559;DHT22;52203;51.998;5.140;2024-01-10T12:38:50;7.92;118.99
65559;DHT22;52203;51.998;5.140;2024-01-10T12:41:18;7.77;118.99
65559;DHT22;52203;51.998;5.140;2024-01-10T12:43:49;7.75;118.99
65559;DHT22;52203;51.998;5.140;2024-01-10T12:46:17;7.73;118.99
65559;DHT22;52203;51.998;5.140;2024-01-10T12:48:43;7.62;118.99
65559;DHT22;52203;51.998;5.140;2024-01-10T12:51:10;7.63;118.99
65559;DHT22;52203;51.998;5.140;2024-01-10T12:53:38;7.58;118.99
65559;DHT22;52203;51.998;5.140;2024-01-10T12:56:06;7.57;118.99
65559;DHT22;52203;51.998;5.140;2024-01-10T12:58:35;7.58;118.99
65559;DHT22;52203;51.998;5.140;2024-01-10T13:01:04;7.59;118.99
65559;DHT22;52203;51.998;5.140;2024-01-10T13:03:33;7.57;118.99
65559;DHT22;52203;51.998;5.140;2024-01-10T13:05:59;7.53;118.99
65559;DHT22;52203;51.998;5.140;2024-01-10T13:08:27;7.54;118.99
65559;DHT22;52203;51.998;5.140;2024-01-10T13:10:53;7.53;118.99
65559;DHT22;52203;51.998;5.140;2024-01-10T13:13:19;7.53;118.99
65559;DHT22;52203;51.998;5.140;2024-01-10T13:15:47;7.54;118.99
65559;DHT22;52203;51.998;5.140;2024-01-10T13:18:12;7.54;118.99
65559;DHT22;52203;51.998;5.140;2024-01-10T13:20:42;7.55;118.99
65559;DHT22;52203;51.998;5.140;2024-01-10T13:23:08;7.53;118.99
65559;DHT22;52203;51.998;5.140;2024-01-10T13:25:34;7.52;118.99
65559;DHT22;52203;51.998;5.140;2024-01-10T13:28:00;7.52;118.99
65559;DHT22;52203;51.998;5.140;2024-01-10T13:30:26;7.50;118.99
65559;DHT22;52203;51.998;5.140;2024-01-10T13:32:52;7.49;118.99
65559;DHT22;52203;51.998;5.140;2024-01-10T13:35:18;7.48;118.99
65559;DHT22;52203;51.998;5.140;2024-01-10T13:37:44;7.48;118.99
65559;DHT22;52203;51.998;5.140;2024-01-10T13:40:11;7.49;118.99
65559;DHT22;52203;51.998;5.140;2024-01-10T13:42:40;7.48;118.99
65559;DHT22;52203;51.998;5.140;2024-01-10T13:45:06;7.50;118.99
65559;DHT22;52203;51.998;5.140;2024-01-10T13:47:33;7.47;118.99
65559;DHT22;52203;51.998;5.140;2024-01-10T13:50:03;7.48;118.99
65559;DHT22;52203;51.998;5.140;2024-01-10T13:52:29;7.48;118.99
65559;DHT22;52203;51.998;5.140;2024-01-10T13:54:54;7.49;118.99
65559;DHT22;52203;51.998;5.140;2024-01-10T13:57:21;7.48;118.99
65559;DHT22;52203;51.998;5.140;2024-01-10T13:59:47;7.48;118.99
65559;DHT22;52203;51.998;5.140;2024-01-10T14:02:13;7.48;118.99
65559;DHT22;52203;51.998;5.140;2024-01-10T14:04:39;7.48;118.99
65559;DHT22;52203;51.998;5.140;2024-01-10T14:07:05;7.41;118.99
65559;DHT22;52203;51.998;5.140;2024-01-10T14:09:31;7.41;118.99
65559;DHT22;52203;51.998;5.140;2024-01-10T14:11:56;7.42;118.99
65559;DHT22;52203;51.998;5.140;2024-01-10T14:14:22;7.35;118.99
65559;DHT22;52203;51.998;5.140;2024-01-10T14:16:48;7.31;118.99
65559;DHT22;52203;51.998;5.140;2024-01-10T14:19:13;7.34;118.99
65559;DHT22;52203;51.998;5.140;2024-01-10T14:21:39;7.34;118.99
65559;DHT22;52203;51.998;5.140;2024-01-10T14:24:04;7.38;118.99
65559;DHT22;52203;51.998;5.140;2024-01-10T14:26:30;7.38;118.99
65559;DHT22;52203;51.998;5.140;2024-01-10T14:28:55;7.39;118.99
65559;DHT22;52203;51.998;5.140;2024-01-10T14:31:22;7.40;118.99
65559;DHT22;52203;51.998;5.140;2024-01-10T14:33:50;7.41;118.99
65559;DHT22;52203;51.998;5.140;2024-01-10T14:36:15;7.42;118.99
65559;DHT22;52203;51.998;5.140;2024-01-10T14:38:42;7.40;118.99
65559;DHT22;52203;51.998;5.140;2024-01-10T14:41:08;7.44;118.99
65559;DHT22;52203;51.998;5.140;2024-01-10T14:43:35;7.38;118.99
65559;DHT22;52203;51.998;5.140;2024-01-10T14:46:01;7.42;118.99
65559;DHT22;52203;51.998;5.140;2024-01-10T14:48:27;7.41;118.99
65559;DHT22;52203;51.998;5.140;2024-01-10T14:50:53;7.42;118.99
65559;DHT22;52203;51.998;5.140;2024-01-10T14:53:19;7.42;118.99
65559;DHT22;52203;51.998;5.140;2024-01-10T14:55:44;7.43;118.99
65559;DHT22;52203;51.998;5.140;2024-01-10T14:58:10;7.83;118.99
65559;DHT22;52203;51.998;5.140;2024-01-10T15:00:35;7.63;118.99
65559;DHT22;52203;51.998;5.140;2024-01-10T15:03:01;7.50;118.99
65559;DHT22;52203;51.998;5.140;2024-01-10T15:05:29;7.47;118.99
65559;DHT22;52203;51.998;5.140;2024-01-10T15:07:55;7.44;118.99
65559;DHT22;52203;51.998;5.140;2024-01-10T15:10:20;7.43;118.99
65559;DHT22;52203;51.998;5.140;2024-01-10T15:12:46;7.43;118.99
65559;DHT22;52203;51.998;5.140;2024-01-10T15:15:11;7.44;118.99
65559;DHT22;52203;51.998;5.140;2024-01-10T15:17:37;7.43;118.99
65559;DHT22;52203;51.998;5.140;2024-01-10T15:20:03;7.41;118.99
65559;DHT22;52203;51.998;5.140;2024-01-10T15:22:29;7.41;118.99
65559;DHT22;52203;51.998;5.140;2024-01-10T15:24:57;7.42;118.99
65559;DHT22;52203;51.998;5.140;2024-01-10T15:27:24;7.41;118.99
65559;DHT22;52203;51.998;5.140;2024-01-10T15:29:50;7.39;118.99
65559;DHT22;52203;51.998;5.140;2024-01-10T15:32:16;7.34;118.99
65559;DHT22;52203;51.998;5.140;2024-01-10T15:34:41;7.27;118.99
65559;DHT22;52203;51.998;5.140;2024-01-10T15:37:07;7.29;118.99
65559;DHT22;52203;51.998;5.140;2024-01-10T15:39:32;7.19;118.99
65559;DHT22;52203;51.998;5.140;2024-01-10T15:41:58;7.12;118.99